Airport ID:KTSP
Update Time (UTC):06 DEC 19 10:02
Wind Speed (Knots):16
Wind Direction (Magnetic):130
Temperature (°C):6
Dew Point (°C):4
Humidity (%):89
Altimeter (inHg):30.19
Density Altitude (Feet):
Visibility (Miles):10
Clouds (Hundreds of feet):CLR
Present Weather:NO PRECIPITATION
METAR:METAR KTSP 061000Z AUTO 14015G18KT 10SM CLR 06/04 A3019 RMK AO2

The data displayed is for advisory purposes only and is not to be used for flight planning or operations.

This page is not automatically refreshed. Reload the page to see current data.